createdAt,value
2023-04-14T00:00:15.414Z,7.87
2023-04-14T00:03:04.779Z,7.86
2023-04-14T00:05:34.703Z,7.82
2023-04-14T00:08:02.692Z,7.78
2023-04-14T00:10:30.759Z,7.73
2023-04-14T00:13:00.295Z,7.68
2023-04-14T00:15:28.195Z,7.64
2023-04-14T00:17:56.336Z,7.64
2023-04-14T00:20:24.541Z,7.63
2023-04-14T00:22:52.557Z,7.62
2023-04-14T00:25:20.522Z,7.58
2023-04-14T00:27:48.488Z,7.57
2023-04-14T00:30:16.535Z,7.57
2023-04-14T00:32:44.608Z,7.56
2023-04-14T00:35:12.605Z,7.56
2023-04-14T00:37:40.725Z,7.55
2023-04-14T00:40:09.609Z,7.54
2023-04-14T00:42:45.299Z,7.55
2023-04-14T00:45:14.541Z,7.57
2023-04-14T00:47:47.170Z,7.61
2023-04-14T00:50:16.950Z,7.62
2023-04-14T00:52:47.337Z,7.64
2023-04-14T00:55:18.205Z,7.66
2023-04-14T00:57:46.893Z,7.65
2023-04-14T01:00:15.870Z,7.69
2023-04-14T01:02:46.178Z,7.70
2023-04-14T01:05:14.578Z,7.67
2023-04-14T01:07:42.979Z,7.71
2023-04-14T01:10:11.695Z,7.72
2023-04-14T01:13:16.193Z,7.75
2023-04-14T01:15:52.891Z,7.77
2023-04-14T01:18:46.846Z,7.77
2023-04-14T01:21:20.471Z,7.77
2023-04-14T01:24:21.552Z,7.75
2023-04-14T01:27:04.796Z,7.78
2023-04-14T01:29:59.077Z,7.75
2023-04-14T01:32:30.174Z,7.71
2023-04-14T01:35:05.872Z,7.72
2023-04-14T01:37:37.578Z,7.71
2023-04-14T01:40:12.694Z,7.67
2023-04-14T01:42:44.607Z,7.71
2023-04-14T01:45:26.140Z,7.69
2023-04-14T01:47:55.463Z,7.69
2023-04-14T01:50:27.594Z,7.65
2023-04-14T01:52:55.990Z,7.65
2023-04-14T01:55:28.464Z,7.56
2023-04-14T01:57:59.059Z,7.58
2023-04-14T02:00:28.108Z,7.61
2023-04-14T02:02:57.112Z,7.64
2023-04-14T02:05:26.949Z,7.63
2023-04-14T02:07:55.768Z,7.66
2023-04-14T02:10:24.869Z,7.64
2023-04-14T02:12:57.145Z,7.68
2023-04-14T02:15:26.268Z,7.68
2023-04-14T02:17:57.194Z,7.66
2023-04-14T02:20:26.401Z,7.64
2023-04-14T02:22:55.007Z,7.61
2023-04-14T02:25:26.240Z,7.61
2023-04-14T02:27:58.335Z,7.59
2023-04-14T02:30:39.529Z,7.56
2023-04-14T02:33:10.473Z,7.55
2023-04-14T02:35:48.692Z,7.55
2023-04-14T02:38:29.882Z,7.54
2023-04-14T02:41:03.028Z,7.51
2023-04-14T02:43:33.567Z,7.54
2023-04-14T02:46:06.571Z,7.54
2023-04-14T02:48:36.633Z,7.55
2023-04-14T02:51:06.184Z,7.55
2023-04-14T02:53:35.497Z,7.58
2023-04-14T02:56:09.394Z,7.60
2023-04-14T02:58:39.732Z,7.59
2023-04-14T03:01:08.446Z,7.59
2023-04-14T03:03:37.800Z,7.57
2023-04-14T03:06:08.475Z,7.56
2023-04-14T03:08:37.470Z,7.53
2023-04-14T03:11:06.955Z,7.54
2023-04-14T03:13:37.344Z,7.49
2023-04-14T03:16:06.965Z,7.41
2023-04-14T03:18:37.249Z,7.37
2023-04-14T03:21:06.414Z,7.39
2023-04-14T03:23:37.694Z,7.36
2023-04-14T03:26:09.138Z,7.25
2023-04-14T03:28:39.922Z,7.21
2023-04-14T03:31:11.678Z,7.19
2023-04-14T03:33:49.213Z,7.17
2023-04-14T03:36:19.420Z,7.07
2023-04-14T03:38:50.007Z,7.06
2023-04-14T03:41:21.317Z,7.02
2023-04-14T03:43:57.062Z,7.01
2023-04-14T03:46:28.490Z,6.99
2023-04-14T03:48:59.943Z,6.94
2023-04-14T03:51:32.110Z,6.90
2023-04-14T03:54:02.489Z,6.82
2023-04-14T03:56:33.430Z,6.82
2023-04-14T03:59:04.135Z,6.80
2023-04-14T04:01:33.728Z,6.79
2023-04-14T04:04:03.318Z,6.81
2023-04-14T04:06:33.122Z,6.81
2023-04-14T04:09:02.611Z,6.83
2023-04-14T04:11:34.144Z,6.85
2023-04-14T04:14:04.335Z,6.88
2023-04-14T04:16:35.799Z,6.89
2023-04-14T04:19:08.238Z,6.89
2023-04-14T04:21:42.317Z,6.93
2023-04-14T04:24:13.419Z,6.95
2023-04-14T04:26:41.803Z,6.95
2023-04-14T04:29:10.319Z,6.93
2023-04-14T04:31:40.461Z,6.95
2023-04-14T04:34:09.341Z,6.92
2023-04-14T04:36:40.314Z,6.95
2023-04-14T04:39:08.404Z,6.98
2023-04-14T04:41:40.240Z,7.02
2023-04-14T04:44:08.307Z,7.08
2023-04-14T04:46:56.424Z,7.15
2023-04-14T04:49:27.118Z,7.25
2023-04-14T04:51:57.072Z,7.33
2023-04-14T04:54:25.290Z,7.42
2023-04-14T04:56:54.026Z,7.48
2023-04-14T04:59:21.971Z,7.53
2023-04-14T05:01:50.020Z,7.59
2023-04-14T05:04:18.329Z,7.62
2023-04-14T05:06:46.303Z,7.73
2023-04-14T05:09:14.191Z,7.88
2023-04-14T05:11:42.498Z,8.03
2023-04-14T05:14:10.517Z,8.15
2023-04-14T05:16:39.407Z,8.26
2023-04-14T05:19:07.592Z,8.39
2023-04-14T05:21:35.619Z,8.50
2023-04-14T05:24:03.848Z,8.58
2023-04-14T05:26:54.420Z,8.69
2023-04-14T05:29:21.506Z,8.68
2023-04-14T05:31:49.532Z,8.76
2023-04-14T05:34:17.519Z,8.84
2023-04-14T05:36:45.938Z,8.94
2023-04-14T05:39:14.039Z,9.03
2023-04-14T05:41:42.048Z,9.12
2023-04-14T05:44:10.094Z,9.22
2023-04-14T05:46:38.770Z,9.33
2023-04-14T05:49:06.998Z,9.44
2023-04-14T05:51:36.301Z,9.54
2023-04-14T05:54:04.348Z,9.55
2023-04-14T05:56:32.539Z,9.66
2023-04-14T05:59:02.139Z,9.74
2023-04-14T06:01:31.301Z,9.77
2023-04-14T06:03:59.406Z,9.85
2023-04-14T06:06:28.193Z,9.86
2023-04-14T06:08:56.364Z,9.91
2023-04-14T06:11:24.352Z,9.91
2023-04-14T06:13:52.287Z,10.04
2023-04-14T06:16:20.399Z,10.00
2023-04-14T06:18:48.435Z,10.02
2023-04-14T06:21:16.415Z,10.14
2023-04-14T06:23:44.353Z,10.17
2023-04-14T06:26:15.151Z,10.34
2023-04-14T06:28:43.921Z,10.45
2023-04-14T06:31:14.307Z,10.53
2023-04-14T06:33:42.381Z,10.46
2023-04-14T06:36:10.572Z,10.50
2023-04-14T06:38:38.567Z,10.62
2023-04-14T06:41:07.178Z,10.75
2023-04-14T06:43:35.241Z,10.83
2023-04-14T06:46:03.394Z,10.76
2023-04-14T06:48:31.546Z,10.86
2023-04-14T06:50:59.587Z,11.07
2023-04-14T06:53:29.707Z,11.07
2023-04-14T06:56:01.601Z,11.14
2023-04-14T06:58:30.186Z,11.19
2023-04-14T07:01:00.221Z,11.39
2023-04-14T07:03:31.424Z,11.63
2023-04-14T07:06:08.416Z,11.83
2023-04-14T07:08:36.875Z,11.93
2023-04-14T07:11:08.717Z,11.97
2023-04-14T07:13:37.849Z,12.04
2023-04-14T07:16:07.973Z,12.14
2023-04-14T07:18:36.429Z,12.23
2023-04-14T07:21:04.728Z,12.21
2023-04-14T07:23:34.401Z,12.25
2023-04-14T07:26:02.984Z,12.52
2023-04-14T07:28:32.703Z,12.72
2023-04-14T07:31:09.085Z,12.86
2023-04-14T07:33:37.486Z,12.81
2023-04-14T07:36:11.851Z,12.94
2023-04-14T07:38:40.168Z,13.12
2023-04-14T07:41:08.532Z,13.12
2023-04-14T07:43:39.487Z,13.21
2023-04-14T07:46:08.489Z,13.36
2023-04-14T07:48:38.768Z,13.28
2023-04-14T07:51:07.952Z,13.60
2023-04-14T07:53:40.685Z,13.69
2023-04-14T07:56:09.268Z,13.83
2023-04-14T07:58:39.185Z,14.04
2023-04-14T08:01:08.032Z,14.13
2023-04-14T08:03:38.049Z,14.36
2023-04-14T08:06:07.681Z,14.51
2023-04-14T08:08:40.163Z,14.51
2023-04-14T08:11:09.791Z,14.61
2023-04-14T08:13:38.754Z,14.76
2023-04-14T08:16:07.376Z,14.97
2023-04-14T08:18:36.792Z,15.00
2023-04-14T08:21:06.932Z,15.15
2023-04-14T08:23:37.890Z,15.16
2023-04-14T08:26:09.030Z,15.17
2023-04-14T08:28:37.527Z,15.14
2023-04-14T08:31:05.936Z,15.34
2023-04-14T08:33:36.569Z,15.31
2023-04-14T08:36:05.612Z,15.52
2023-04-14T08:38:33.656Z,15.66
2023-04-14T08:41:04.452Z,15.86
2023-04-14T08:43:32.524Z,15.97
2023-04-14T08:46:01.091Z,16.15
2023-04-14T08:48:31.283Z,16.29
2023-04-14T08:51:26.406Z,16.28
2023-04-14T08:53:56.492Z,16.55
2023-04-14T08:56:28.796Z,16.64
2023-04-14T08:58:57.341Z,16.74
2023-04-14T09:01:27.346Z,16.80
2023-04-14T09:03:57.928Z,17.02
2023-04-14T09:06:28.108Z,17.23
2023-04-14T09:08:56.378Z,17.48
2023-04-14T09:11:25.061Z,17.55
2023-04-14T09:13:53.749Z,17.62
2023-04-14T09:16:21.992Z,17.60
2023-04-14T09:18:51.783Z,17.71
2023-04-14T09:21:31.280Z,17.79
2023-04-14T09:24:11.628Z,17.99
2023-04-14T09:26:40.823Z,18.15
2023-04-14T09:29:09.309Z,18.39
2023-04-14T09:31:38.192Z,18.24
2023-04-14T09:34:16.228Z,18.10
2023-04-14T09:37:08.970Z,18.17
2023-04-14T09:39:48.087Z,18.26
2023-04-14T09:42:19.086Z,18.25
2023-04-14T09:45:00.065Z,18.51
2023-04-14T09:47:28.129Z,18.30
2023-04-14T09:49:57.861Z,18.41
2023-04-14T09:52:39.742Z,18.53
2023-04-14T09:55:13.057Z,18.29
2023-04-14T09:57:42.495Z,18.48
2023-04-14T10:00:17.954Z,18.49
2023-04-14T10:02:52.382Z,18.51
2023-04-14T10:05:21.534Z,18.52
2023-04-14T10:07:50.367Z,18.44
2023-04-14T10:10:18.453Z,18.61
2023-04-14T10:12:47.275Z,18.46
2023-04-14T10:15:20.893Z,18.00
2023-04-14T10:17:49.113Z,18.11
2023-04-14T10:20:17.458Z,18.15
2023-04-14T10:22:46.734Z,18.05
2023-04-14T10:25:15.747Z,18.33
2023-04-14T10:27:45.296Z,18.42
2023-04-14T10:30:14.720Z,18.58
2023-04-14T10:32:46.087Z,18.63
2023-04-14T10:35:18.615Z,18.34
2023-04-14T10:37:51.770Z,18.17
2023-04-14T10:40:23.215Z,18.20
2023-04-14T10:42:56.108Z,18.05
2023-04-14T10:45:24.456Z,17.93
2023-04-14T10:47:56.025Z,17.60
2023-04-14T10:50:25.411Z,17.22
2023-04-14T10:52:56.140Z,17.25
2023-04-14T10:55:31.263Z,17.30
2023-04-14T10:58:06.528Z,17.16
2023-04-14T11:00:38.723Z,17.12
2023-04-14T11:03:11.769Z,17.18
2023-04-14T11:05:44.180Z,17.00
2023-04-14T11:08:16.842Z,17.06
2023-04-14T11:10:49.453Z,17.02
2023-04-14T11:13:17.902Z,16.83
2023-04-14T11:15:57.306Z,16.79
2023-04-14T11:18:29.660Z,16.85
2023-04-14T11:21:13.436Z,16.77
2023-04-14T11:23:42.223Z,16.77
2023-04-14T11:26:14.021Z,16.82
2023-04-14T11:28:44.442Z,16.79
2023-04-14T11:31:17.196Z,16.83
2023-04-14T11:33:46.635Z,16.86
2023-04-14T11:36:15.754Z,16.88
2023-04-14T11:38:47.148Z,16.93
2023-04-14T11:41:16.453Z,16.90
2023-04-14T11:43:47.375Z,16.82
2023-04-14T11:46:23.006Z,16.76
2023-04-14T11:48:59.322Z,16.75
2023-04-14T11:51:30.368Z,16.75
2023-04-14T11:54:00.018Z,16.80
2023-04-14T11:56:28.831Z,16.82
2023-04-14T11:59:05.124Z,16.87
2023-04-14T12:01:33.337Z,16.98
2023-04-14T12:04:01.907Z,17.06
2023-04-14T12:06:54.918Z,17.08
2023-04-14T12:09:41.652Z,17.27
2023-04-14T12:12:16.867Z,17.30
2023-04-14T12:14:47.449Z,17.29
2023-04-14T12:17:17.342Z,17.35
2023-04-14T12:19:46.686Z,17.44
2023-04-14T12:22:23.205Z,17.48
2023-04-14T12:24:51.346Z,17.50
2023-04-14T12:27:22.718Z,17.48
2023-04-14T12:29:51.931Z,17.49
2023-04-14T12:32:22.275Z,17.52
2023-04-14T12:34:59.336Z,17.44
2023-04-14T12:37:28.326Z,17.40
2023-04-14T12:39:59.342Z,17.39
2023-04-14T12:42:45.590Z,17.33
2023-04-14T12:45:16.186Z,17.27
2023-04-14T12:47:55.559Z,17.25
2023-04-14T12:50:26.281Z,17.15
2023-04-14T12:52:55.796Z,17.18
2023-04-14T12:55:25.664Z,17.15
2023-04-14T12:57:54.858Z,17.12
2023-04-14T13:00:28.314Z,17.06
2023-04-14T13:02:56.860Z,17.05
2023-04-14T13:05:25.128Z,16.95
2023-04-14T13:07:53.440Z,16.81
2023-04-14T13:10:22.143Z,16.78
2023-04-14T13:12:50.893Z,16.73
2023-04-14T13:16:10.028Z,16.72
2023-04-14T13:18:07.358Z,16.69
2023-04-14T13:20:35.827Z,16.70
2023-04-14T13:23:04.012Z,16.74
2023-04-14T13:25:31.944Z,16.74
2023-04-14T13:27:59.915Z,16.72
2023-04-14T13:30:28.134Z,16.71
2023-04-14T13:32:59.231Z,16.64
2023-04-14T13:35:27.250Z,16.68
2023-04-14T13:37:55.844Z,16.70
2023-04-14T13:40:23.929Z,16.66
2023-04-14T13:42:52.389Z,16.68
2023-04-14T13:45:20.538Z,16.65
2023-04-14T13:47:49.515Z,16.59
2023-04-14T13:50:19.472Z,16.56
2023-04-14T13:52:48.882Z,16.54
2023-04-14T13:55:18.128Z,16.51
2023-04-14T13:57:46.596Z,16.46
2023-04-14T14:00:14.932Z,16.41
2023-04-14T14:02:43.229Z,16.36
2023-04-14T14:05:15.324Z,16.29
2023-04-14T14:07:44.280Z,16.27
2023-04-14T14:10:12.388Z,16.26
2023-04-14T14:12:41.046Z,16.22
2023-04-14T14:15:11.539Z,16.25
2023-04-14T14:17:41.021Z,16.25
2023-04-14T14:20:10.776Z,16.21
2023-04-14T14:22:39.127Z,16.08
2023-04-14T14:25:19.265Z,15.92
2023-04-14T14:27:52.029Z,15.77
2023-04-14T14:30:20.680Z,15.70
2023-04-14T14:32:48.984Z,15.56
2023-04-14T14:35:17.070Z,15.37
2023-04-14T14:37:45.794Z,15.15
2023-04-14T14:40:14.017Z,15.00
2023-04-14T14:42:42.114Z,14.78
2023-04-14T14:45:10.750Z,14.62
2023-04-14T14:47:39.126Z,14.44
2023-04-14T14:50:11.714Z,14.38
2023-04-14T14:52:39.664Z,14.29
2023-04-14T14:55:09.488Z,14.22
2023-04-14T14:57:38.563Z,14.18
2023-04-14T15:00:08.049Z,14.13
2023-04-14T15:02:36.718Z,14.05
2023-04-14T15:05:06.258Z,13.97
2023-04-14T15:07:34.223Z,13.90
2023-04-14T15:10:04.589Z,13.82
2023-04-14T15:12:33.281Z,13.67
2023-04-14T15:15:01.316Z,13.49
2023-04-14T15:17:30.094Z,13.31
2023-04-14T15:20:03.550Z,13.15
2023-04-14T15:22:32.257Z,13.05
2023-04-14T15:25:00.930Z,12.85
2023-04-14T15:27:29.637Z,12.60
2023-04-14T15:29:57.951Z,12.36
2023-04-14T15:32:27.668Z,12.14
2023-04-14T15:34:56.098Z,11.95
2023-04-14T15:37:24.081Z,11.82
2023-04-14T15:39:52.235Z,11.72
2023-04-14T15:42:20.670Z,11.64
2023-04-14T15:44:50.096Z,11.57
2023-04-14T15:47:18.843Z,11.52
2023-04-14T15:49:50.021Z,11.50
2023-04-14T15:52:28.105Z,11.50
2023-04-14T15:54:56.064Z,11.52
2023-04-14T15:57:25.141Z,11.54
2023-04-14T15:59:53.361Z,11.54
2023-04-14T16:02:21.580Z,11.55
2023-04-14T16:04:49.924Z,11.55
2023-04-14T16:07:18.221Z,11.54
2023-04-14T16:09:46.562Z,11.58
2023-04-14T16:12:14.717Z,11.63
2023-04-14T16:14:43.088Z,11.64
2023-04-14T16:17:11.423Z,11.63
2023-04-14T16:19:39.856Z,11.67
2023-04-14T16:22:08.263Z,11.73
2023-04-14T16:24:36.679Z,11.76
2023-04-14T16:27:04.793Z,11.75
2023-04-14T16:29:32.897Z,11.70
2023-04-14T16:32:01.273Z,11.62
2023-04-14T16:34:29.982Z,11.54
2023-04-14T16:36:58.729Z,11.44
2023-04-14T16:39:28.340Z,11.38
2023-04-14T16:41:57.349Z,11.36
2023-04-14T16:44:25.402Z,11.35
2023-04-14T16:46:53.406Z,11.33
2023-04-14T16:49:21.481Z,11.31
2023-04-14T16:51:50.376Z,11.29
2023-04-14T16:54:18.473Z,11.28
2023-04-14T16:56:46.900Z,11.24
2023-04-14T16:59:15.468Z,11.22
2023-04-14T17:01:44.998Z,11.20
2023-04-14T17:04:13.337Z,11.17
2023-04-14T17:06:41.465Z,11.12
2023-04-14T17:09:09.952Z,11.10
2023-04-14T17:11:39.385Z,11.09
2023-04-14T17:14:08.277Z,11.06
2023-04-14T17:16:36.791Z,11.06
2023-04-14T17:19:05.215Z,11.06
2023-04-14T17:21:33.397Z,11.06
2023-04-14T17:24:01.783Z,11.06
2023-04-14T17:26:30.204Z,11.03
2023-04-14T17:28:58.581Z,11.02
2023-04-14T17:31:26.784Z,11.00
2023-04-14T17:33:56.203Z,10.96
2023-04-14T17:36:24.109Z,10.93
2023-04-14T17:38:52.327Z,10.89
2023-04-14T17:41:21.273Z,10.90
2023-04-14T17:43:49.529Z,10.88
2023-04-14T17:46:17.803Z,10.83
2023-04-14T17:48:46.359Z,10.80
2023-04-14T17:51:15.573Z,10.77
2023-04-14T17:53:43.658Z,10.74
2023-04-14T17:56:12.234Z,10.71
2023-04-14T17:58:40.289Z,10.67
2023-04-14T18:01:09.826Z,10.67
2023-04-14T18:03:38.078Z,10.68
2023-04-14T18:06:08.213Z,10.67
2023-04-14T18:08:36.205Z,10.67
2023-04-14T18:11:05.018Z,10.68
2023-04-14T18:13:33.643Z,10.68
2023-04-14T18:16:02.243Z,10.67
2023-04-14T18:18:30.334Z,10.68
2023-04-14T18:20:58.338Z,10.66
2023-04-14T18:23:27.604Z,10.63
2023-04-14T18:28:31.842Z,10.57
2023-04-14T18:31:00.503Z,10.51
2023-04-14T18:33:29.272Z,10.50
2023-04-14T18:35:58.567Z,10.45
2023-04-14T18:38:27.481Z,10.41
2023-04-14T18:41:05.036Z,10.45
2023-04-14T18:43:34.482Z,10.45
2023-04-14T18:46:02.637Z,10.45
2023-04-14T18:48:31.976Z,10.44
2023-04-14T18:51:08.018Z,10.40
2023-04-14T18:53:36.353Z,10.41
2023-04-14T18:56:05.637Z,10.39
2023-04-14T18:58:34.238Z,10.35
2023-04-14T19:01:03.830Z,10.35
2023-04-14T19:03:32.068Z,10.33
2023-04-14T19:06:00.612Z,10.31
2023-04-14T19:08:28.737Z,10.30
2023-04-14T19:10:58.678Z,10.28
2023-04-14T19:13:26.765Z,10.28
2023-04-14T19:16:08.905Z,10.30
2023-04-14T19:18:37.480Z,10.30
2023-04-14T19:21:09.720Z,10.30
2023-04-14T19:23:38.388Z,10.31
2023-04-14T19:26:08.289Z,10.32
2023-04-14T19:28:39.870Z,10.31
2023-04-14T19:31:08.214Z,10.30
2023-04-14T19:33:36.308Z,10.28
2023-04-14T19:36:11.853Z,10.26
2023-04-14T19:38:40.021Z,10.24
2023-04-14T19:41:09.529Z,10.19
2023-04-14T19:43:37.870Z,10.15
2023-04-14T19:46:07.263Z,10.11
2023-04-14T19:48:35.433Z,10.07
2023-04-14T19:51:04.053Z,10.02
2023-04-14T19:53:32.104Z,10.01
2023-04-14T19:56:00.258Z,9.96
2023-04-14T19:58:28.718Z,9.88
2023-04-14T20:00:57.592Z,9.83
2023-04-14T20:03:26.763Z,9.74
2023-04-14T20:05:56.963Z,9.67
2023-04-14T20:08:26.511Z,9.57
2023-04-14T20:10:54.975Z,9.48
2023-04-14T20:13:24.442Z,9.37
2023-04-14T20:15:55.258Z,9.30
2023-04-14T20:18:23.914Z,9.21
2023-04-14T20:20:52.915Z,9.13
2023-04-14T20:23:21.162Z,9.06
2023-04-14T20:25:53.183Z,9.02
2023-04-14T20:28:23.256Z,8.96
2023-04-14T20:30:54.556Z,8.91
2023-04-14T20:33:24.615Z,8.85
2023-04-14T20:35:54.083Z,8.80
2023-04-14T20:38:22.770Z,8.75
2023-04-14T20:40:51.756Z,8.71
2023-04-14T20:43:20.859Z,8.64
2023-04-14T20:45:50.089Z,8.61
2023-04-14T20:48:18.552Z,8.56
2023-04-14T20:50:49.709Z,8.53
2023-04-14T20:53:21.120Z,8.50
2023-04-14T20:55:49.252Z,8.45
2023-04-14T20:58:17.201Z,8.41
2023-04-14T21:00:45.568Z,8.35
2023-04-14T21:03:13.932Z,8.31
2023-04-14T21:05:42.374Z,8.26
2023-04-14T21:08:10.852Z,8.19
2023-04-14T21:11:14.540Z,8.13
2023-04-14T21:15:39.957Z,8.05
2023-04-14T21:16:15.831Z,7.98
2023-04-14T21:18:43.842Z,7.94
2023-04-14T21:21:12.452Z,7.89
2023-04-14T21:23:41.197Z,7.83
2023-04-14T21:26:09.171Z,7.77
2023-04-14T21:28:38.120Z,7.72
2023-04-14T21:31:06.826Z,7.65
2023-04-14T21:33:34.945Z,7.60
2023-04-14T21:36:02.912Z,7.55
2023-04-14T21:38:31.055Z,7.50
2023-04-14T21:40:59.022Z,7.46
2023-04-14T21:43:26.955Z,7.42
2023-04-14T21:45:55.179Z,7.36
2023-04-14T21:48:24.112Z,7.35
2023-04-14T21:50:52.220Z,7.30
2023-04-14T21:53:20.944Z,7.25
2023-04-14T21:56:08.796Z,7.22
2023-04-14T21:58:39.317Z,7.20
2023-04-14T22:01:10.196Z,7.16
2023-04-14T22:03:40.762Z,7.08
2023-04-14T22:06:12.102Z,7.05
2023-04-14T22:08:41.008Z,7.03
2023-04-14T22:11:09.297Z,6.97
2023-04-14T22:13:43.933Z,6.94
2023-04-14T22:16:12.413Z,6.90
2023-04-14T22:18:40.487Z,6.88
2023-04-14T22:21:14.385Z,6.85
2023-04-14T22:23:46.720Z,6.84
2023-04-14T22:26:16.854Z,6.80
2023-04-14T22:28:44.777Z,6.73
2023-04-14T22:31:13.307Z,6.74
2023-04-14T22:33:41.953Z,6.75
2023-04-14T22:36:10.137Z,6.75
2023-04-14T22:38:38.143Z,6.72
2023-04-14T22:41:06.104Z,6.74
2023-04-14T22:43:34.537Z,6.73
2023-04-14T22:46:02.648Z,6.72
2023-04-14T22:48:31.707Z,6.72
2023-04-14T22:50:59.696Z,6.71
2023-04-14T22:53:27.870Z,6.70
2023-04-14T22:55:55.874Z,6.68
2023-04-14T22:58:24.183Z,6.69
2023-04-14T23:00:52.700Z,6.69
2023-04-14T23:03:20.747Z,6.70
2023-04-14T23:05:49.373Z,6.70
2023-04-14T23:08:17.519Z,6.73
2023-04-14T23:10:45.514Z,6.73
2023-04-14T23:13:13.434Z,6.75
2023-04-14T23:15:41.730Z,6.75
2023-04-14T23:18:09.749Z,6.75
2023-04-14T23:20:38.981Z,6.73
2023-04-14T23:23:12.496Z,6.76
2023-04-14T23:25:41.000Z,6.76
2023-04-14T23:28:10.000Z,6.76
2023-04-14T23:30:38.337Z,6.76
2023-04-14T23:33:06.773Z,6.70
2023-04-14T23:35:36.092Z,6.71
2023-04-14T23:38:05.112Z,6.70
2023-04-14T23:40:34.235Z,6.71
2023-04-14T23:43:03.358Z,6.72
2023-04-14T23:45:36.989Z,6.69
2023-04-14T23:48:06.700Z,6.73
2023-04-14T23:51:01.022Z,6.79
2023-04-14T23:53:23.995Z,6.79
2023-04-14T23:55:52.230Z,6.75
2023-04-14T23:58:26.464Z,6.76
